createdAt,value
2022-07-29T17:27:42.811Z,100238.16
2022-07-29T17:32:47.331Z,100238.09
2022-07-29T17:37:50.654Z,100246.52
2022-07-29T17:42:54.086Z,100245.86
2022-07-29T17:47:57.508Z,100252.91
2022-07-29T17:53:00.787Z,100262.80
2022-07-29T17:58:04.159Z,100265.36
2022-07-29T18:03:07.703Z,100270.73
2022-07-29T18:08:11.287Z,100274.01
2022-07-29T18:13:24.229Z,100271.63
2022-07-29T18:18:27.631Z,100272.55
2022-07-29T18:23:38.918Z,100278.77
2022-07-29T18:28:48.218Z,100285.17
2022-07-29T18:33:56.154Z,100282.91
2022-07-29T18:39:04.180Z,100281.41
2022-07-29T18:44:08.391Z,100285.98
2022-07-29T18:49:13.027Z,100288.34
2022-07-29T18:54:17.699Z,100281.84
2022-07-29T18:59:22.417Z,100281.46
2022-07-29T19:04:25.771Z,100290.91
2022-07-29T19:09:30.000Z,100292.44
2022-07-29T19:14:33.204Z,100291.94
2022-07-29T19:19:36.681Z,100292.91
2022-07-29T19:24:41.287Z,100293.63
2022-07-29T19:29:44.638Z,100290.90
2022-07-29T19:35:07.800Z,100282.72
2022-07-29T19:40:13.088Z,100280.30
2022-07-29T19:45:26.269Z,100280.81
2022-07-29T19:50:33.293Z,100283.27
2022-07-29T19:55:38.030Z,100270.34
2022-07-29T20:00:42.223Z,100263.39
2022-07-29T20:05:48.066Z,100269.75
2022-07-29T20:10:52.130Z,100272.10
2022-07-29T20:15:55.576Z,100286.14
2022-07-29T20:21:00.659Z,100284.75
2022-07-29T20:26:09.499Z,100285.23
2022-07-29T20:31:15.893Z,100282.80
2022-07-29T20:36:19.322Z,100281.69
2022-07-29T20:41:23.257Z,100294.80
2022-07-29T20:46:36.059Z,100307.12
2022-07-29T20:51:43.710Z,100313.53
2022-07-29T20:57:11.748Z,100309.73
2022-07-29T21:02:37.837Z,100300.67
2022-07-29T21:07:42.375Z,100300.27
2022-07-29T21:12:46.729Z,100299.73
2022-07-29T21:17:52.840Z,100294.23
2022-07-29T21:22:56.381Z,100283.39
2022-07-29T21:28:32.842Z,100279.13
2022-07-29T21:33:57.459Z,100273.41
2022-07-29T21:39:08.278Z,100273.19
2022-07-29T21:44:11.702Z,100276.04
2022-07-29T21:49:15.224Z,100273.44
2022-07-29T21:54:19.268Z,100268.79
2022-07-29T21:59:26.366Z,100276.51
2022-07-29T22:04:30.425Z,100276.77
2022-07-29T22:09:35.150Z,100275.40
2022-07-29T22:14:47.022Z,100276.52
2022-07-29T22:20:10.178Z,100266.48
2022-07-29T22:25:13.535Z,100261.77
2022-07-29T22:30:17.218Z,100264.79
2022-07-29T22:35:21.093Z,100269.20
2022-07-29T22:40:41.051Z,100253.01
2022-07-29T22:45:52.928Z,100244.00
2022-07-29T22:51:02.961Z,100234.46
2022-07-29T22:56:07.962Z,100232.20
2022-07-29T23:01:38.698Z,100227.59
2022-07-29T23:06:57.089Z,100217.82
2022-07-29T23:12:01.880Z,100219.09
2022-07-29T23:17:06.233Z,100220.64
2022-07-29T23:22:09.579Z,100209.48
2022-07-29T23:27:12.874Z,100207.64
2022-07-29T23:32:16.055Z,100205.04
2022-07-29T23:37:19.308Z,100198.59
2022-07-29T23:42:22.798Z,100197.98
2022-07-29T23:47:26.310Z,100198.16
2022-07-29T23:52:29.578Z,100193.05
2022-07-29T23:57:32.899Z,100191.91
